sensor_id;sensor_type;location;lat;lon;timestamp;pressure;altitude;pressure_sealevel;temperature;humidity
51999;BME280;73339;50.924;11.598;2024-01-10T00:01:46;101013.13;;;18.80;25.63
51999;BME280;73339;50.924;11.598;2024-01-10T00:04:16;101011.73;;;18.81;25.46
51999;BME280;73339;50.924;11.598;2024-01-10T00:06:46;101012.90;;;18.82;25.54
51999;BME280;73339;50.924;11.598;2024-01-10T00:09:17;101010.72;;;18.81;25.49
51999;BME280;73339;50.924;11.598;2024-01-10T00:11:47;101005.71;;;18.81;25.61
51999;BME280;73339;50.924;11.598;2024-01-10T00:14:17;101005.95;;;18.69;25.76
51999;BME280;73339;50.924;11.598;2024-01-10T00:16:47;101004.49;;;18.71;25.80
51999;BME280;73339;50.924;11.598;2024-01-10T00:19:17;100998.23;;;18.56;26.03
51999;BME280;73339;50.924;11.598;2024-01-10T00:21:48;100996.14;;;18.42;26.25
51999;BME280;73339;50.924;11.598;2024-01-10T00:24:18;100995.83;;;18.37;26.36
51999;BME280;73339;50.924;11.598;2024-01-10T00:26:49;100993.11;;;18.47;26.16
51999;BME280;73339;50.924;11.598;2024-01-10T00:29:19;100993.64;;;18.46;26.17
51999;BME280;73339;50.924;11.598;2024-01-10T00:31:50;100995.49;;;18.61;25.92
51999;BME280;73339;50.924;11.598;2024-01-10T00:34:20;100998.30;;;18.75;25.62
51999;BME280;73339;50.924;11.598;2024-01-10T00:36:51;100999.75;;;18.78;25.44
51999;BME280;73339;50.924;11.598;2024-01-10T00:39:21;100996.96;;;18.79;25.41
51999;BME280;73339;50.924;11.598;2024-01-10T00:41:52;100995.02;;;18.80;25.44
51999;BME280;73339;50.924;11.598;2024-01-10T00:44:23;100994.97;;;18.84;25.38
51999;BME280;73339;50.924;11.598;2024-01-10T00:46:53;100997.85;;;18.82;25.39
51999;BME280;73339;50.924;11.598;2024-01-10T00:49:23;100997.99;;;18.71;25.61
51999;BME280;73339;50.924;11.598;2024-01-10T00:51:54;101001.07;;;18.64;25.67
51999;BME280;73339;50.924;11.598;2024-01-10T00:54:24;100996.64;;;18.58;25.77
51999;BME280;73339;50.924;11.598;2024-01-10T00:56:54;101000.46;;;18.67;25.63
51999;BME280;73339;50.924;11.598;2024-01-10T00:59:25;101001.05;;;18.64;25.58
51999;BME280;73339;50.924;11.598;2024-01-10T01:01:55;101000.63;;;18.71;25.44
51999;BME280;73339;50.924;11.598;2024-01-10T01:04:26;101003.24;;;18.76;25.40
51999;BME280;73339;50.924;11.598;2024-01-10T01:06:56;101001.81;;;18.74;25.46
51999;BME280;73339;50.924;11.598;2024-01-10T01:09:26;101001.66;;;18.72;25.46
51999;BME280;73339;50.924;11.598;2024-01-10T01:11:56;101003.73;;;18.67;25.42
51999;BME280;73339;50.924;11.598;2024-01-10T01:14:27;100999.76;;;18.55;25.75
51999;BME280;73339;50.924;11.598;2024-01-10T01:16:58;101004.57;;;18.57;25.69
51999;BME280;73339;50.924;11.598;2024-01-10T01:19:28;101004.82;;;18.38;26.02
51999;BME280;73339;50.924;11.598;2024-01-10T01:21:59;101004.16;;;18.49;25.62
51999;BME280;73339;50.924;11.598;2024-01-10T01:24:29;101008.08;;;18.58;25.67
51999;BME280;73339;50.924;11.598;2024-01-10T01:26:59;101010.48;;;18.68;25.49
51999;BME280;73339;50.924;11.598;2024-01-10T01:29:29;101008.07;;;18.69;25.42
51999;BME280;73339;50.924;11.598;2024-01-10T01:32:00;101003.31;;;18.74;25.27
51999;BME280;73339;50.924;11.598;2024-01-10T01:34:31;101004.48;;;18.83;25.09
51999;BME280;73339;50.924;11.598;2024-01-10T01:37:02;101006.44;;;18.79;25.11
51999;BME280;73339;50.924;11.598;2024-01-10T01:39:32;101001.07;;;18.80;25.05
51999;BME280;73339;50.924;11.598;2024-01-10T01:42:03;101001.66;;;18.81;25.10
51999;BME280;73339;50.924;11.598;2024-01-10T01:44:33;100997.24;;;18.80;25.02
51999;BME280;73339;50.924;11.598;2024-01-10T01:47:03;100995.70;;;18.78;25.03
51999;BME280;73339;50.924;11.598;2024-01-10T01:49:34;100994.18;;;18.77;24.97
51999;BME280;73339;50.924;11.598;2024-01-10T01:52:05;100986.06;;;18.70;25.25
51999;BME280;73339;50.924;11.598;2024-01-10T01:54:34;100979.65;;;18.53;25.52
51999;BME280;73339;50.924;11.598;2024-01-10T01:57:04;100975.60;;;18.47;25.64
51999;BME280;73339;50.924;11.598;2024-01-10T01:59:35;100968.06;;;18.42;25.68
51999;BME280;73339;50.924;11.598;2024-01-10T02:02:05;100963.04;;;18.44;25.68
51999;BME280;73339;50.924;11.598;2024-01-10T02:04:36;100958.39;;;18.63;25.37
51999;BME280;73339;50.924;11.598;2024-01-10T02:07:06;100963.06;;;18.42;25.72
51999;BME280;73339;50.924;11.598;2024-01-10T02:09:36;100964.69;;;18.46;25.65
51999;BME280;73339;50.924;11.598;2024-01-10T02:12:07;100971.78;;;18.56;25.49
51999;BME280;73339;50.924;11.598;2024-01-10T02:14:37;100969.41;;;18.46;25.64
51999;BME280;73339;50.924;11.598;2024-01-10T02:17:09;100966.30;;;18.57;25.48
51999;BME280;73339;50.924;11.598;2024-01-10T02:19:38;100961.31;;;18.73;25.18
51999;BME280;73339;50.924;11.598;2024-01-10T02:22:09;100962.73;;;18.69;25.25
51999;BME280;73339;50.924;11.598;2024-01-10T02:24:39;100961.97;;;18.73;25.16
51999;BME280;73339;50.924;11.598;2024-01-10T02:27:10;100957.82;;;18.74;25.11
51999;BME280;73339;50.924;11.598;2024-01-10T02:29:40;100956.60;;;18.79;24.97
51999;BME280;73339;50.924;11.598;2024-01-10T02:32:10;100954.40;;;18.77;24.97
51999;BME280;73339;50.924;11.598;2024-01-10T02:34:41;100949.70;;;18.81;24.89
51999;BME280;73339;50.924;11.598;2024-01-10T02:37:11;100951.23;;;18.80;24.88
51999;BME280;73339;50.924;11.598;2024-01-10T02:39:41;100949.90;;;18.72;25.01
51999;BME280;73339;50.924;11.598;2024-01-10T02:42:12;100956.99;;;18.73;24.95
51999;BME280;73339;50.924;11.598;2024-01-10T02:44:42;100960.32;;;18.71;25.00
51999;BME280;73339;50.924;11.598;2024-01-10T02:47:13;100961.19;;;18.62;25.10
51999;BME280;73339;50.924;11.598;2024-01-10T02:49:43;100964.58;;;18.64;25.07
51999;BME280;73339;50.924;11.598;2024-01-10T02:52:14;100964.28;;;18.63;25.08
51999;BME280;73339;50.924;11.598;2024-01-10T02:54:44;100963.09;;;18.65;25.00
51999;BME280;73339;50.924;11.598;2024-01-10T02:57:15;100957.06;;;18.45;25.49
51999;BME280;73339;50.924;11.598;2024-01-10T02:59:46;100958.99;;;18.32;25.70
51999;BME280;73339;50.924;11.598;2024-01-10T03:02:16;100958.96;;;18.54;25.33
51999;BME280;73339;50.924;11.598;2024-01-10T03:04:47;100960.43;;;18.49;25.40
51999;BME280;73339;50.924;11.598;2024-01-10T03:07:17;100962.37;;;18.41;25.53
51999;BME280;73339;50.924;11.598;2024-01-10T03:09:48;100961.39;;;18.34;25.65
51999;BME280;73339;50.924;11.598;2024-01-10T03:12:18;100960.58;;;18.31;25.73
51999;BME280;73339;50.924;11.598;2024-01-10T03:14:49;100959.81;;;18.24;25.82
51999;BME280;73339;50.924;11.598;2024-01-10T03:17:19;100955.36;;;18.36;25.62
51999;BME280;73339;50.924;11.598;2024-01-10T03:19:50;100956.21;;;18.53;25.35
51999;BME280;73339;50.924;11.598;2024-01-10T03:22:21;100952.67;;;18.60;25.18
51999;BME280;73339;50.924;11.598;2024-01-10T03:24:51;100946.61;;;18.60;25.15
51999;BME280;73339;50.924;11.598;2024-01-10T03:27:21;100944.71;;;18.67;25.06
51999;BME280;73339;50.924;11.598;2024-01-10T03:29:52;100941.48;;;18.75;24.86
51999;BME280;73339;50.924;11.598;2024-01-10T03:32:22;100945.15;;;18.76;24.81
51999;BME280;73339;50.924;11.598;2024-01-10T03:34:52;100941.86;;;18.85;24.72
51999;BME280;73339;50.924;11.598;2024-01-10T03:37:23;100938.95;;;18.82;24.68
51999;BME280;73339;50.924;11.598;2024-01-10T03:39:53;100939.16;;;18.79;24.78
51999;BME280;73339;50.924;11.598;2024-01-10T03:42:24;100938.25;;;18.76;24.73
51999;BME280;73339;50.924;11.598;2024-01-10T03:44:54;100937.32;;;18.77;24.62
51999;BME280;73339;50.924;11.598;2024-01-10T03:47:25;100936.41;;;18.74;24.60
51999;BME280;73339;50.924;11.598;2024-01-10T03:49:55;100932.82;;;18.73;24.61
51999;BME280;73339;50.924;11.598;2024-01-10T03:52:25;100929.90;;;18.72;24.59
51999;BME280;73339;50.924;11.598;2024-01-10T03:54:56;100925.25;;;18.58;24.83
51999;BME280;73339;50.924;11.598;2024-01-10T03:57:27;100925.51;;;18.65;24.77
51999;BME280;73339;50.924;11.598;2024-01-10T03:59:57;100923.81;;;18.67;24.75
51999;BME280;73339;50.924;11.598;2024-01-10T04:02:28;100919.29;;;18.61;24.98
51999;BME280;73339;50.924;11.598;2024-01-10T04:04:58;100916.60;;;18.60;24.97
51999;BME280;73339;50.924;11.598;2024-01-10T04:07:29;100919.35;;;18.46;25.20
51999;BME280;73339;50.924;11.598;2024-01-10T04:09:59;100923.21;;;18.45;25.21
51999;BME280;73339;50.924;11.598;2024-01-10T04:12:29;100920.84;;;18.42;25.29
51999;BME280;73339;50.924;11.598;2024-01-10T04:15:00;100919.01;;;18.50;25.12
51999;BME280;73339;50.924;11.598;2024-01-10T04:17:31;100921.89;;;18.61;24.98
51999;BME280;73339;50.924;11.598;2024-01-10T04:20:01;100923.13;;;18.55;25.06
51999;BME280;73339;50.924;11.598;2024-01-10T04:22:32;100920.53;;;18.51;25.11
51999;BME280;73339;50.924;11.598;2024-01-10T04:25:06;100918.85;;;18.47;25.19
51999;BME280;73339;50.924;11.598;2024-01-10T04:27:33;100917.51;;;18.60;24.97
51999;BME280;73339;50.924;11.598;2024-01-10T04:30:04;100919.74;;;18.65;24.86
51999;BME280;73339;50.924;11.598;2024-01-10T04:32:34;100921.18;;;18.69;24.80
51999;BME280;73339;50.924;11.598;2024-01-10T04:35:04;100924.15;;;18.70;24.69
51999;BME280;73339;50.924;11.598;2024-01-10T04:37:34;100924.54;;;18.71;24.69
51999;BME280;73339;50.924;11.598;2024-01-10T04:40:05;100925.87;;;18.77;24.51
51999;BME280;73339;50.924;11.598;2024-01-10T04:42:34;100921.20;;;18.76;24.58
51999;BME280;73339;50.924;11.598;2024-01-10T04:45:05;100920.15;;;18.75;24.48
51999;BME280;73339;50.924;11.598;2024-01-10T04:47:35;100921.08;;;18.70;24.57
51999;BME280;73339;50.924;11.598;2024-01-10T04:50:06;100920.21;;;18.71;24.51
51999;BME280;73339;50.924;11.598;2024-01-10T04:52:36;100920.25;;;18.69;24.56
51999;BME280;73339;50.924;11.598;2024-01-10T04:55:07;100920.26;;;18.58;24.63
51999;BME280;73339;50.924;11.598;2024-01-10T04:57:36;100923.66;;;18.64;24.47
51999;BME280;73339;50.924;11.598;2024-01-10T05:00:07;100921.47;;;18.62;24.61
51999;BME280;73339;50.924;11.598;2024-01-10T05:02:37;100919.18;;;18.61;24.76
51999;BME280;73339;50.924;11.598;2024-01-10T05:05:08;100920.20;;;18.54;24.75
51999;BME280;73339;50.924;11.598;2024-01-10T05:07:38;100918.77;;;18.43;25.02
51999;BME280;73339;50.924;11.598;2024-01-10T05:10:09;100924.12;;;18.33;25.23
51999;BME280;73339;50.924;11.598;2024-01-10T05:12:39;100918.88;;;18.31;25.19
51999;BME280;73339;50.924;11.598;2024-01-10T05:15:09;100919.39;;;18.27;25.29
51999;BME280;73339;50.924;11.598;2024-01-10T05:17:41;100920.17;;;18.32;25.19
51999;BME280;73339;50.924;11.598;2024-01-10T05:20:11;100919.32;;;18.47;24.94
51999;BME280;73339;50.924;11.598;2024-01-10T05:22:42;100920.04;;;18.53;24.83
51999;BME280;73339;50.924;11.598;2024-01-10T05:25:12;100921.51;;;18.69;24.60
51999;BME280;73339;50.924;11.598;2024-01-10T05:27:42;100922.60;;;18.53;24.81
51999;BME280;73339;50.924;11.598;2024-01-10T05:30:13;100927.02;;;18.54;24.79
51999;BME280;73339;50.924;11.598;2024-01-10T05:32:43;100927.14;;;18.51;24.81
51999;BME280;73339;50.924;11.598;2024-01-10T05:35:13;100920.29;;;18.57;24.71
51999;BME280;73339;50.924;11.598;2024-01-10T05:37:43;100923.54;;;18.69;24.38
51999;BME280;73339;50.924;11.598;2024-01-10T05:40:14;100924.98;;;18.72;24.41
51999;BME280;73339;50.924;11.598;2024-01-10T05:42:44;100922.97;;;18.70;24.41
51999;BME280;73339;50.924;11.598;2024-01-10T05:45:14;100920.14;;;18.70;24.25
51999;BME280;73339;50.924;11.598;2024-01-10T05:47:45;100919.13;;;18.72;24.34
51999;BME280;73339;50.924;11.598;2024-01-10T05:50:15;100921.88;;;18.65;24.37
51999;BME280;73339;50.924;11.598;2024-01-10T05:52:46;100916.92;;;18.66;24.42
51999;BME280;73339;50.924;11.598;2024-01-10T05:55:16;100918.42;;;18.64;24.50
51999;BME280;73339;50.924;11.598;2024-01-10T05:57:46;100918.30;;;18.56;24.62
51999;BME280;73339;50.924;11.598;2024-01-10T06:00:16;100919.02;;;18.55;24.68
51999;BME280;73339;50.924;11.598;2024-01-10T06:02:47;100915.23;;;18.28;25.09
51999;BME280;73339;50.924;11.598;2024-01-10T06:05:17;100915.31;;;18.28;25.08
51999;BME280;73339;50.924;11.598;2024-01-10T06:07:48;100919.86;;;18.28;25.10
51999;BME280;73339;50.924;11.598;2024-01-10T06:10:18;100919.16;;;18.30;25.06
51999;BME280;73339;50.924;11.598;2024-01-10T06:12:49;100915.04;;;18.36;24.93
51999;BME280;73339;50.924;11.598;2024-01-10T06:15:19;100913.22;;;18.44;24.80
51999;BME280;73339;50.924;11.598;2024-01-10T06:17:50;100914.46;;;18.39;24.88
51999;BME280;73339;50.924;11.598;2024-01-10T06:20:20;100911.46;;;18.38;24.86
51999;BME280;73339;50.924;11.598;2024-01-10T06:22:51;100910.12;;;18.35;24.93
51999;BME280;73339;50.924;11.598;2024-01-10T06:25:21;100906.16;;;18.43;24.78
51999;BME280;73339;50.924;11.598;2024-01-10T06:27:51;100903.81;;;18.39;24.84
51999;BME280;73339;50.924;11.598;2024-01-10T06:30:22;100905.45;;;18.46;24.69
51999;BME280;73339;50.924;11.598;2024-01-10T06:32:52;100908.68;;;18.48;24.56
51999;BME280;73339;50.924;11.598;2024-01-10T06:35:22;100912.53;;;18.49;24.63
51999;BME280;73339;50.924;11.598;2024-01-10T06:37:53;100911.69;;;18.54;24.39
51999;BME280;73339;50.924;11.598;2024-01-10T06:40:23;100915.17;;;18.64;24.36
51999;BME280;73339;50.924;11.598;2024-01-10T06:42:54;100919.83;;;18.66;24.23
51999;BME280;73339;50.924;11.598;2024-01-10T06:45:24;100923.21;;;18.66;24.18
51999;BME280;73339;50.924;11.598;2024-01-10T06:47:54;100923.13;;;18.65;24.29
51999;BME280;73339;50.924;11.598;2024-01-10T06:50:25;100924.95;;;18.59;24.21
51999;BME280;73339;50.924;11.598;2024-01-10T06:52:55;100927.33;;;18.55;24.54
51999;BME280;73339;50.924;11.598;2024-01-10T06:55:27;100924.98;;;18.55;24.42
51999;BME280;73339;50.924;11.598;2024-01-10T06:57:56;100924.67;;;18.53;24.52
51999;BME280;73339;50.924;11.598;2024-01-10T07:00:27;100928.91;;;18.35;24.85
51999;BME280;73339;50.924;11.598;2024-01-10T07:03:01;100928.13;;;18.35;24.81
51999;BME280;73339;50.924;11.598;2024-01-10T07:05:27;100924.41;;;18.41;24.28
51999;BME280;73339;50.924;11.598;2024-01-10T07:07:58;100925.96;;;18.60;24.21
51999;BME280;73339;50.924;11.598;2024-01-10T07:10:29;100927.95;;;18.63;24.37
51999;BME280;73339;50.924;11.598;2024-01-10T07:12:59;100932.70;;;18.65;24.54
51999;BME280;73339;50.924;11.598;2024-01-10T07:15:29;100934.48;;;18.75;24.65
51999;BME280;73339;50.924;11.598;2024-01-10T07:18:00;100934.31;;;18.70;24.85
51999;BME280;73339;50.924;11.598;2024-01-10T07:20:30;100934.53;;;18.83;24.86
51999;BME280;73339;50.924;11.598;2024-01-10T07:23:01;100932.13;;;18.88;25.05
51999;BME280;73339;50.924;11.598;2024-01-10T07:25:32;100927.76;;;18.86;24.91
51999;BME280;73339;50.924;11.598;2024-01-10T07:28:03;100932.32;;;18.80;25.40
51999;BME280;73339;50.924;11.598;2024-01-10T07:30:33;100935.86;;;18.72;25.67
51999;BME280;73339;50.924;11.598;2024-01-10T07:33:03;100944.37;;;18.92;23.68
51999;BME280;73339;50.924;11.598;2024-01-10T07:35:33;100940.19;;;19.00;21.94
51999;BME280;73339;50.924;11.598;2024-01-10T07:38:04;100944.13;;;19.03;20.63
51999;BME280;73339;50.924;11.598;2024-01-10T07:40:34;100946.15;;;19.00;19.85
51999;BME280;73339;50.924;11.598;2024-01-10T07:43:05;100943.76;;;18.93;19.36
51999;BME280;73339;50.924;11.598;2024-01-10T07:45:35;100949.17;;;19.03;18.89
51999;BME280;73339;50.924;11.598;2024-01-10T07:48:07;100944.34;;;18.98;18.64
51999;BME280;73339;50.924;11.598;2024-01-10T07:50:37;100940.90;;;18.99;18.55
51999;BME280;73339;50.924;11.598;2024-01-10T07:53:07;100944.35;;;18.99;18.41
51999;BME280;73339;50.924;11.598;2024-01-10T07:55:38;100942.23;;;18.97;18.24
51999;BME280;73339;50.924;11.598;2024-01-10T07:58:08;100943.63;;;18.91;18.30
51999;BME280;73339;50.924;11.598;2024-01-10T08:00:38;100941.83;;;18.95;18.15
51999;BME280;73339;50.924;11.598;2024-01-10T08:03:09;100948.00;;;18.99;17.98
51999;BME280;73339;50.924;11.598;2024-01-10T08:05:40;100944.33;;;19.08;17.70
51999;BME280;73339;50.924;11.598;2024-01-10T08:08:10;100949.59;;;19.03;18.49
51999;BME280;73339;50.924;11.598;2024-01-10T08:10:41;100946.04;;;19.09;19.27
51999;BME280;73339;50.924;11.598;2024-01-10T08:13:11;100943.03;;;19.19;19.43
51999;BME280;73339;50.924;11.598;2024-01-10T08:15:42;100944.59;;;19.13;20.03
51999;BME280;73339;50.924;11.598;2024-01-10T08:18:13;100944.07;;;19.08;20.35
51999;BME280;73339;50.924;11.598;2024-01-10T08:20:43;100947.68;;;19.20;20.19
51999;BME280;73339;50.924;11.598;2024-01-10T08:23:13;100954.00;;;19.25;20.27
51999;BME280;73339;50.924;11.598;2024-01-10T08:25:44;100956.30;;;19.31;20.29
51999;BME280;73339;50.924;11.598;2024-01-10T08:28:14;100957.28;;;19.36;20.35
51999;BME280;73339;50.924;11.598;2024-01-10T08:30:45;100958.34;;;19.35;20.46
51999;BME280;73339;50.924;11.598;2024-01-10T08:33:15;100955.64;;;19.41;21.01
51999;BME280;73339;50.924;11.598;2024-01-10T08:35:46;100954.24;;;19.26;21.49
51999;BME280;73339;50.924;11.598;2024-01-10T08:38:16;100956.22;;;19.21;21.59
51999;BME280;73339;50.924;11.598;2024-01-10T08:40:47;100958.31;;;19.17;21.73
51999;BME280;73339;50.924;11.598;2024-01-10T08:43:17;100955.43;;;19.28;21.83
51999;BME280;73339;50.924;11.598;2024-01-10T08:45:47;100950.87;;;19.29;21.35
51999;BME280;73339;50.924;11.598;2024-01-10T08:48:18;100948.84;;;19.31;21.03
51999;BME280;73339;50.924;11.598;2024-01-10T08:50:48;100944.32;;;19.31;20.73
51999;BME280;73339;50.924;11.598;2024-01-10T08:53:19;100948.72;;;19.30;21.04
51999;BME280;73339;50.924;11.598;2024-01-10T08:55:49;100947.92;;;19.35;21.21
51999;BME280;73339;50.924;11.598;2024-01-10T08:58:20;100948.42;;;19.39;21.34
51999;BME280;73339;50.924;11.598;2024-01-10T09:00:50;100952.53;;;19.37;21.58
51999;BME280;73339;50.924;11.598;2024-01-10T09:03:20;100951.64;;;19.37;21.75
51999;BME280;73339;50.924;11.598;2024-01-10T09:05:50;100952.68;;;19.37;21.76
51999;BME280;73339;50.924;11.598;2024-01-10T09:08:21;100948.36;;;19.46;21.95
51999;BME280;73339;50.924;11.598;2024-01-10T09:10:51;100945.54;;;19.48;21.85
51999;BME280;73339;50.924;11.598;2024-01-10T09:13:21;100938.90;;;19.45;22.17
51999;BME280;73339;50.924;11.598;2024-01-10T09:15:52;100934.15;;;19.33;22.72
51999;BME280;73339;50.924;11.598;2024-01-10T09:18:22;100932.10;;;19.36;22.69
51999;BME280;73339;50.924;11.598;2024-01-10T09:20:53;100930.62;;;19.38;22.89
51999;BME280;73339;50.924;11.598;2024-01-10T09:23:23;100923.25;;;19.37;23.13
51999;BME280;73339;50.924;11.598;2024-01-10T09:25:54;100924.57;;;19.34;23.52
51999;BME280;73339;50.924;11.598;2024-01-10T09:28:24;100925.05;;;19.26;23.76
51999;BME280;73339;50.924;11.598;2024-01-10T09:30:54;100927.20;;;19.35;23.86
51999;BME280;73339;50.924;11.598;2024-01-10T09:33:24;100925.12;;;19.25;24.12
51999;BME280;73339;50.924;11.598;2024-01-10T09:35:55;100927.01;;;19.43;23.82
51999;BME280;73339;50.924;11.598;2024-01-10T09:38:26;100922.96;;;19.54;23.59
51999;BME280;73339;50.924;11.598;2024-01-10T09:41:00;100921.91;;;19.49;23.68
51999;BME280;73339;50.924;11.598;2024-01-10T09:43:29;100919.91;;;19.56;23.65
51999;BME280;73339;50.924;11.598;2024-01-10T09:46:00;100916.86;;;19.59;23.67
51999;BME280;73339;50.924;11.598;2024-01-10T09:48:29;100913.23;;;19.60;23.65
51999;BME280;73339;50.924;11.598;2024-01-10T09:50:59;100913.41;;;19.61;23.69
51999;BME280;73339;50.924;11.598;2024-01-10T09:53:31;100912.72;;;19.56;23.82
51999;BME280;73339;50.924;11.598;2024-01-10T09:55:59;100911.61;;;19.58;23.86
51999;BME280;73339;50.924;11.598;2024-01-10T09:58:30;100909.81;;;19.60;23.76
51999;BME280;73339;50.924;11.598;2024-01-10T10:00:59;100905.45;;;19.63;23.83
51999;BME280;73339;50.924;11.598;2024-01-10T10:03:30;100900.66;;;19.55;24.21
51999;BME280;73339;50.924;11.598;2024-01-10T10:06:00;100902.95;;;19.52;24.30
51999;BME280;73339;50.924;11.598;2024-01-10T10:08:31;100903.45;;;19.53;24.20
51999;BME280;73339;50.924;11.598;2024-01-10T10:11:01;100903.28;;;19.58;24.01
51999;BME280;73339;50.924;11.598;2024-01-10T10:13:32;100902.45;;;19.57;24.11
51999;BME280;73339;50.924;11.598;2024-01-10T10:16:03;100903.54;;;19.58;24.03
51999;BME280;73339;50.924;11.598;2024-01-10T10:18:32;100900.38;;;19.44;24.65
51999;BME280;73339;50.924;11.598;2024-01-10T10:21:07;100898.47;;;19.28;25.01
51999;BME280;73339;50.924;11.598;2024-01-10T10:23:33;100896.59;;;19.28;25.21
51999;BME280;73339;50.924;11.598;2024-01-10T10:26:10;100903.30;;;19.34;25.04
51999;BME280;73339;50.924;11.598;2024-01-10T10:28:34;100900.94;;;19.35;24.31
51999;BME280;73339;50.924;11.598;2024-01-10T10:31:04;100890.44;;;19.26;24.76
51999;BME280;73339;50.924;11.598;2024-01-10T10:33:34;100884.50;;;19.23;25.24
51999;BME280;73339;50.924;11.598;2024-01-10T10:36:05;100886.59;;;19.23;25.40
51999;BME280;73339;50.924;11.598;2024-01-10T10:38:35;100883.08;;;19.33;25.44
51999;BME280;73339;50.924;11.598;2024-01-10T10:41:05;100878.58;;;19.34;25.67
51999;BME280;73339;50.924;11.598;2024-01-10T10:43:36;100880.32;;;19.52;24.99
51999;BME280;73339;50.924;11.598;2024-01-10T10:46:07;100874.94;;;19.62;24.61
51999;BME280;73339;50.924;11.598;2024-01-10T10:48:36;100877.12;;;19.56;25.11
51999;BME280;73339;50.924;11.598;2024-01-10T10:51:08;100878.88;;;19.68;23.93
51999;BME280;73339;50.924;11.598;2024-01-10T10:53:38;100875.18;;;19.72;24.00
51999;BME280;73339;50.924;11.598;2024-01-10T10:56:07;100878.46;;;19.60;25.43
51999;BME280;73339;50.924;11.598;2024-01-10T10:58:39;100878.77;;;19.47;25.42
51999;BME280;73339;50.924;11.598;2024-01-10T11:01:10;100876.44;;;19.57;24.59
51999;BME280;73339;50.924;11.598;2024-01-10T11:03:40;100877.74;;;19.52;24.10
51999;BME280;73339;50.924;11.598;2024-01-10T11:06:09;100873.80;;;19.49;23.37
51999;BME280;73339;50.924;11.598;2024-01-10T11:08:43;100872.64;;;19.41;22.91
51999;BME280;73339;50.924;11.598;2024-01-10T11:11:18;100869.56;;;19.49;22.80
51999;BME280;73339;50.924;11.598;2024-01-10T11:13:54;100863.29;;;19.53;22.99
51999;BME280;73339;50.924;11.598;2024-01-10T11:18:51;100860.39;;;19.50;23.66
51999;BME280;73339;50.924;11.598;2024-01-10T11:21:19;100858.44;;;19.34;24.32
51999;BME280;73339;50.924;11.598;2024-01-10T11:23:44;100855.97;;;19.46;24.28
51999;BME280;73339;50.924;11.598;2024-01-10T11:26:13;100852.52;;;19.51;24.34
51999;BME280;73339;50.924;11.598;2024-01-10T11:28:42;100852.32;;;19.26;24.05
51999;BME280;73339;50.924;11.598;2024-01-10T11:31:13;100851.23;;;19.29;23.29
51999;BME280;73339;50.924;11.598;2024-01-10T11:33:44;100848.14;;;19.35;22.63
51999;BME280;73339;50.924;11.598;2024-01-10T11:36:15;100842.49;;;19.48;22.09
51999;BME280;73339;50.924;11.598;2024-01-10T11:38:49;100843.20;;;19.45;21.83
51999;BME280;73339;50.924;11.598;2024-01-10T11:41:21;100843.21;;;19.49;21.47
51999;BME280;73339;50.924;11.598;2024-01-10T11:43:45;100839.77;;;19.45;21.30
51999;BME280;73339;50.924;11.598;2024-01-10T11:46:16;100836.75;;;19.44;21.06
51999;BME280;73339;50.924;11.598;2024-01-10T11:48:47;100834.52;;;19.39;21.11
51999;BME280;73339;50.924;11.598;2024-01-10T11:51:17;100828.98;;;19.31;21.14
51999;BME280;73339;50.924;11.598;2024-01-10T11:53:47;100822.49;;;19.32;21.05
51999;BME280;73339;50.924;11.598;2024-01-10T11:56:17;100818.73;;;19.25;21.04
51999;BME280;73339;50.924;11.598;2024-01-10T11:58:53;100817.59;;;19.33;21.15
51999;BME280;73339;50.924;11.598;2024-01-10T12:01:19;100812.49;;;19.30;21.33
51999;BME280;73339;50.924;11.598;2024-01-10T12:03:51;100808.60;;;19.37;21.38
51999;BME280;73339;50.924;11.598;2024-01-10T12:06:21;100807.21;;;19.41;21.49
51999;BME280;73339;50.924;11.598;2024-01-10T12:08:49;100805.85;;;19.44;21.58
51999;BME280;73339;50.924;11.598;2024-01-10T12:11:20;100806.44;;;19.36;21.74
51999;BME280;73339;50.924;11.598;2024-01-10T12:13:50;100802.70;;;19.25;22.16
51999;BME280;73339;50.924;11.598;2024-01-10T12:16:23;100798.68;;;19.22;22.42
51999;BME280;73339;50.924;11.598;2024-01-10T12:18:51;100802.11;;;19.20;22.56
51999;BME280;73339;50.924;11.598;2024-01-10T12:21:22;100806.16;;;19.33;22.58
51999;BME280;73339;50.924;11.598;2024-01-10T12:23:52;100806.62;;;19.39;22.49
51999;BME280;73339;50.924;11.598;2024-01-10T12:26:22;100810.20;;;19.33;22.64
51999;BME280;73339;50.924;11.598;2024-01-10T12:28:54;100807.73;;;19.36;22.69
51999;BME280;73339;50.924;11.598;2024-01-10T12:31:23;100808.97;;;19.30;23.15
51999;BME280;73339;50.924;11.598;2024-01-10T12:33:55;100807.69;;;19.43;22.82
51999;BME280;73339;50.924;11.598;2024-01-10T12:36:25;100813.19;;;19.33;22.83
51999;BME280;73339;50.924;11.598;2024-01-10T12:38:55;100811.82;;;19.47;22.44
51999;BME280;73339;50.924;11.598;2024-01-10T12:41:26;100814.98;;;19.47;22.17
51999;BME280;73339;50.924;11.598;2024-01-10T12:43:59;100813.20;;;19.42;21.99
51999;BME280;73339;50.924;11.598;2024-01-10T12:46:27;100808.01;;;19.43;21.95
51999;BME280;73339;50.924;11.598;2024-01-10T12:48:59;100805.94;;;19.40;21.89
51999;BME280;73339;50.924;11.598;2024-01-10T12:51:28;100807.49;;;19.28;21.99
51999;BME280;73339;50.924;11.598;2024-01-10T12:54:00;100806.23;;;19.29;21.93
51999;BME280;73339;50.924;11.598;2024-01-10T12:56:29;100811.78;;;19.25;22.00
51999;BME280;73339;50.924;11.598;2024-01-10T12:59:00;100812.28;;;19.23;22.05